sensor_id;sensor_type;location;lat;lon;timestamp;pressure;altitude;pressure_sealevel;temperature;humidity
49216;BME280;45943;53.148;8.204;2023-04-28T00:01:21;101806.03;;;12.24;100.00
49216;BME280;45943;53.148;8.204;2023-04-28T00:03:47;101800.22;;;12.18;100.00
49216;BME280;45943;53.148;8.204;2023-04-28T00:06:13;101805.38;;;12.08;100.00
49216;BME280;45943;53.148;8.204;2023-04-28T00:08:39;101803.78;;;12.05;100.00
49216;BME280;45943;53.148;8.204;2023-04-28T00:11:09;101800.97;;;12.07;100.00
49216;BME280;45943;53.148;8.204;2023-04-28T00:13:37;101796.47;;;12.07;100.00
49216;BME280;45943;53.148;8.204;2023-04-28T00:16:03;101795.06;;;12.15;100.00
49216;BME280;45943;53.148;8.204;2023-04-28T00:18:29;101788.72;;;12.16;100.00
49216;BME280;45943;53.148;8.204;2023-04-28T00:20:55;101794.22;;;12.14;100.00
49216;BME280;45943;53.148;8.204;2023-04-28T00:23:21;101792.91;;;12.07;100.00
49216;BME280;45943;53.148;8.204;2023-04-28T00:25:50;101786.28;;;12.00;100.00
49216;BME280;45943;53.148;8.204;2023-04-28T00:28:17;101785.19;;;12.02;100.00
49216;BME280;45943;53.148;8.204;2023-04-28T00:30:43;101781.84;;;11.99;100.00
49216;BME280;45943;53.148;8.204;2023-04-28T00:33:09;101784.03;;;11.94;100.00
49216;BME280;45943;53.148;8.204;2023-04-28T00:35:35;101776.19;;;11.91;100.00
49216;BME280;45943;53.148;8.204;2023-04-28T00:38:01;101776.38;;;11.88;100.00
49216;BME280;45943;53.148;8.204;2023-04-28T00:40:33;101770.88;;;11.89;100.00
49216;BME280;45943;53.148;8.204;2023-04-28T00:43:00;101765.50;;;11.89;100.00
49216;BME280;45943;53.148;8.204;2023-04-28T00:45:26;101762.50;;;11.94;100.00
49216;BME280;45943;53.148;8.204;2023-04-28T00:47:52;101755.28;;;11.94;100.00
49216;BME280;45943;53.148;8.204;2023-04-28T00:50:20;101755.41;;;11.93;100.00
49216;BME280;45943;53.148;8.204;2023-04-28T00:52:46;101751.97;;;11.91;100.00
49216;BME280;45943;53.148;8.204;2023-04-28T00:55:13;101742.19;;;11.90;100.00
49216;BME280;45943;53.148;8.204;2023-04-28T00:57:41;101735.75;;;11.92;100.00
49216;BME280;45943;53.148;8.204;2023-04-28T01:00:07;101737.75;;;11.89;100.00
49216;BME280;45943;53.148;8.204;2023-04-28T01:02:36;101738.53;;;11.91;100.00
49216;BME280;45943;53.148;8.204;2023-04-28T01:05:02;101734.75;;;11.93;100.00
49216;BME280;45943;53.148;8.204;2023-04-28T01:07:29;101727.25;;;11.86;100.00
49216;BME280;45943;53.148;8.204;2023-04-28T01:09:55;101728.84;;;11.88;100.00
49216;BME280;45943;53.148;8.204;2023-04-28T01:12:21;101729.31;;;11.82;100.00
49216;BME280;45943;53.148;8.204;2023-04-28T01:14:48;101732.09;;;11.81;100.00
49216;BME280;45943;53.148;8.204;2023-04-28T01:17:14;101722.28;;;11.80;100.00
49216;BME280;45943;53.148;8.204;2023-04-28T01:19:41;101725.88;;;11.80;100.00
49216;BME280;45943;53.148;8.204;2023-04-28T01:22:07;101722.28;;;11.80;100.00
49216;BME280;45943;53.148;8.204;2023-04-28T01:24:35;101716.03;;;11.79;100.00
49216;BME280;45943;53.148;8.204;2023-04-28T01:27:01;101707.22;;;11.77;100.00
49216;BME280;45943;53.148;8.204;2023-04-28T01:29:27;101701.84;;;11.77;100.00
49216;BME280;45943;53.148;8.204;2023-04-28T01:31:53;101699.84;;;11.81;100.00
49216;BME280;45943;53.148;8.204;2023-04-28T01:34:19;101702.53;;;11.81;100.00
49216;BME280;45943;53.148;8.204;2023-04-28T01:36:45;101705.38;;;11.77;100.00
49216;BME280;45943;53.148;8.204;2023-04-28T01:39:11;101705.38;;;11.77;100.00
49216;BME280;45943;53.148;8.204;2023-04-28T01:41:37;101693.25;;;11.85;100.00
49216;BME280;45943;53.148;8.204;2023-04-28T01:44:03;101694.75;;;11.89;100.00
49216;BME280;45943;53.148;8.204;2023-04-28T01:46:30;101685.81;;;11.88;100.00
49216;BME280;45943;53.148;8.204;2023-04-28T01:48:56;101679.38;;;11.78;100.00
49216;BME280;45943;53.148;8.204;2023-04-28T01:51:22;101677.44;;;11.67;100.00
49216;BME280;45943;53.148;8.204;2023-04-28T01:53:48;101677.78;;;11.63;100.00
49216;BME280;45943;53.148;8.204;2023-04-28T01:56:14;101677.78;;;11.63;100.00
49216;BME280;45943;53.148;8.204;2023-04-28T01:58:40;101667.25;;;11.60;100.00
49216;BME280;45943;53.148;8.204;2023-04-28T02:01:06;101664.66;;;11.58;100.00
49216;BME280;45943;53.148;8.204;2023-04-28T02:03:32;101664.28;;;11.52;100.00
49216;BME280;45943;53.148;8.204;2023-04-28T02:05:58;101664.69;;;11.45;100.00
49216;BME280;45943;53.148;8.204;2023-04-28T02:08:24;101658.47;;;11.45;100.00
49216;BME280;45943;53.148;8.204;2023-04-28T02:10:50;101660.81;;;11.49;100.00
49216;BME280;45943;53.148;8.204;2023-04-28T02:13:16;101656.22;;;11.52;100.00
49216;BME280;45943;53.148;8.204;2023-04-28T02:15:42;101655.97;;;11.55;100.00
49216;BME280;45943;53.148;8.204;2023-04-28T02:18:09;101653.19;;;11.56;100.00
49216;BME280;45943;53.148;8.204;2023-04-28T02:20:35;101647.19;;;11.53;100.00
49216;BME280;45943;53.148;8.204;2023-04-28T02:23:01;101649.97;;;11.51;100.00
49216;BME280;45943;53.148;8.204;2023-04-28T02:25:27;101645.16;;;11.43;100.00
49216;BME280;45943;53.148;8.204;2023-04-28T02:27:53;101642.34;;;11.45;100.00
49216;BME280;45943;53.148;8.204;2023-04-28T02:30:19;101632.47;;;11.45;100.00
49216;BME280;45943;53.148;8.204;2023-04-28T02:32:45;101632.13;;;11.50;100.00
49216;BME280;45943;53.148;8.204;2023-04-28T02:35:12;101624.81;;;11.52;100.00
49216;BME280;45943;53.148;8.204;2023-04-28T02:37:38;101608.91;;;11.49;100.00
49216;BME280;45943;53.148;8.204;2023-04-28T02:40:05;101603.25;;;11.41;100.00
49216;BME280;45943;53.148;8.204;2023-04-28T02:42:31;101604.00;;;11.30;100.00
49216;BME280;45943;53.148;8.204;2023-04-28T02:44:57;101593.81;;;11.23;100.00
49216;BME280;45943;53.148;8.204;2023-04-28T02:47:23;101600.91;;;11.24;100.00
49216;BME280;45943;53.148;8.204;2023-04-28T02:49:49;101598.22;;;11.24;100.00
49216;BME280;45943;53.148;8.204;2023-04-28T02:52:15;101592.75;;;11.25;100.00
49216;BME280;45943;53.148;8.204;2023-04-28T02:54:41;101584.78;;;11.24;100.00
49216;BME280;45943;53.148;8.204;2023-04-28T02:57:07;101589.06;;;11.26;100.00
49216;BME280;45943;53.148;8.204;2023-04-28T02:59:33;101594.34;;;11.28;100.00
49216;BME280;45943;53.148;8.204;2023-04-28T03:02:00;101576.84;;;11.22;100.00
49216;BME280;45943;53.148;8.204;2023-04-28T03:04:26;101580.50;;;11.21;100.00
49216;BME280;45943;53.148;8.204;2023-04-28T03:06:52;101575.13;;;11.21;100.00
49216;BME280;45943;53.148;8.204;2023-04-28T03:09:18;101567.41;;;11.16;100.00
49216;BME280;45943;53.148;8.204;2023-04-28T03:11:44;101555.38;;;11.22;100.00
49216;BME280;45943;53.148;8.204;2023-04-28T03:14:10;101554.78;;;11.30;100.00
49216;BME280;45943;53.148;8.204;2023-04-28T03:16:36;101548.69;;;11.28;100.00
49216;BME280;45943;53.148;8.204;2023-04-28T03:19:02;101536.34;;;11.25;100.00
49216;BME280;45943;53.148;8.204;2023-04-28T03:21:28;101545.13;;;11.27;100.00
49216;BME280;45943;53.148;8.204;2023-04-28T03:23:54;101544.16;;;11.28;100.00
49216;BME280;45943;53.148;8.204;2023-04-28T03:26:20;101546.53;;;11.33;100.00
49216;BME280;45943;53.148;8.204;2023-04-28T03:28:46;101543.72;;;11.34;100.00
49216;BME280;45943;53.148;8.204;2023-04-28T03:31:12;101535.56;;;11.36;100.00
49216;BME280;45943;53.148;8.204;2023-04-28T03:33:38;101521.19;;;11.24;100.00
49216;BME280;45943;53.148;8.204;2023-04-28T03:36:04;101530.34;;;11.22;100.00
49216;BME280;45943;53.148;8.204;2023-04-28T03:38:31;101521.91;;;11.02;100.00
49216;BME280;45943;53.148;8.204;2023-04-28T03:40:57;101521.97;;;11.01;100.00
49216;BME280;45943;53.148;8.204;2023-04-28T03:43:23;101515.31;;;11.06;100.00
49216;BME280;45943;53.148;8.204;2023-04-28T03:45:48;101508.88;;;11.09;100.00
49216;BME280;45943;53.148;8.204;2023-04-28T03:48:14;101504.06;;;11.01;100.00
49216;BME280;45943;53.148;8.204;2023-04-28T03:50:41;101498.59;;;11.03;100.00
49216;BME280;45943;53.148;8.204;2023-04-28T03:53:07;101494.06;;;11.03;100.00
49216;BME280;45943;53.148;8.204;2023-04-28T03:55:33;101482.38;;;11.04;100.00
49216;BME280;45943;53.148;8.204;2023-04-28T03:57:59;101479.44;;;11.07;100.00
49216;BME280;45943;53.148;8.204;2023-04-28T04:00:25;101475.91;;;11.07;100.00
49216;BME280;45943;53.148;8.204;2023-04-28T04:02:51;101469.34;;;11.11;100.00
49216;BME280;45943;53.148;8.204;2023-04-28T04:05:17;101467.00;;;11.06;100.00
49216;BME280;45943;53.148;8.204;2023-04-28T04:07:43;101479.44;;;11.07;100.00
49216;BME280;45943;53.148;8.204;2023-04-28T04:10:09;101471.84;;;11.01;100.00
49216;BME280;45943;53.148;8.204;2023-04-28T04:12:35;101467.44;;;11.00;100.00
49216;BME280;45943;53.148;8.204;2023-04-28T04:15:02;101462.22;;;10.86;100.00
49216;BME280;45943;53.148;8.204;2023-04-28T04:17:28;101454.06;;;10.75;100.00
49216;BME280;45943;53.148;8.204;2023-04-28T04:19:54;101451.63;;;10.72;100.00
49216;BME280;45943;53.148;8.204;2023-04-28T04:22:20;101466.63;;;10.74;100.00
49216;BME280;45943;53.148;8.204;2023-04-28T04:24:46;101454.50;;;10.69;100.00
49216;BME280;45943;53.148;8.204;2023-04-28T04:27:12;101457.63;;;10.75;100.00
49216;BME280;45943;53.148;8.204;2023-04-28T04:29:38;101455.78;;;10.76;100.00
49216;BME280;45943;53.148;8.204;2023-04-28T04:32:04;101446.66;;;10.78;100.00
49216;BME280;45943;53.148;8.204;2023-04-28T04:34:30;101440.31;;;10.79;100.00
49216;BME280;45943;53.148;8.204;2023-04-28T04:36:56;101442.47;;;10.74;100.00
49216;BME280;45943;53.148;8.204;2023-04-28T04:39:22;101441.09;;;10.69;100.00
49216;BME280;45943;53.148;8.204;2023-04-28T04:41:48;101441.75;;;10.72;100.00
49216;BME280;45943;53.148;8.204;2023-04-28T04:44:14;101439.47;;;10.66;100.00
49216;BME280;45943;53.148;8.204;2023-04-28T04:46:40;101438.41;;;10.69;100.00
49216;BME280;45943;53.148;8.204;2023-04-28T04:49:06;101432.69;;;10.86;100.00
49216;BME280;45943;53.148;8.204;2023-04-28T04:51:32;101431.47;;;10.90;100.00
49216;BME280;45943;53.148;8.204;2023-04-28T04:53:58;101436.22;;;10.86;100.00
49216;BME280;45943;53.148;8.204;2023-04-28T04:56:24;101430.84;;;10.86;100.00
49216;BME280;45943;53.148;8.204;2023-04-28T04:58:50;101435.13;;;10.89;100.00
49216;BME280;45943;53.148;8.204;2023-04-28T05:01:16;101438.56;;;10.91;100.00
49216;BME280;45943;53.148;8.204;2023-04-28T05:03:42;101438.16;;;10.84;100.00
49216;BME280;45943;53.148;8.204;2023-04-28T05:06:08;101438.00;;;10.99;100.00
49216;BME280;45943;53.148;8.204;2023-04-28T05:08:34;101431.25;;;11.06;100.00
49216;BME280;45943;53.148;8.204;2023-04-28T05:11:00;101427.66;;;11.18;100.00
49216;BME280;45943;53.148;8.204;2023-04-28T05:13:26;101432.28;;;11.16;100.00
49216;BME280;45943;53.148;8.204;2023-04-28T05:15:52;101427.22;;;11.24;100.00
49216;BME280;45943;53.148;8.204;2023-04-28T05:18:18;101426.72;;;11.30;100.00
49216;BME280;45943;53.148;8.204;2023-04-28T05:20:44;101421.44;;;11.41;100.00
49216;BME280;45943;53.148;8.204;2023-04-28T05:23:10;101422.88;;;11.34;100.00
49216;BME280;45943;53.148;8.204;2023-04-28T05:25:36;101413.25;;;11.43;100.00
49216;BME280;45943;53.148;8.204;2023-04-28T05:28:02;101422.56;;;11.50;99.77
49216;BME280;45943;53.148;8.204;2023-04-28T05:30:32;101422.06;;;11.45;99.78
49216;BME280;45943;53.148;8.204;2023-04-28T05:32:58;101413.38;;;11.41;100.00
49216;BME280;45943;53.148;8.204;2023-04-28T05:35:24;101417.41;;;11.47;99.81
49216;BME280;45943;53.148;8.204;2023-04-28T05:37:50;101412.16;;;11.45;97.91
49216;BME280;45943;53.148;8.204;2023-04-28T05:40:16;101416.00;;;11.54;97.27
49216;BME280;45943;53.148;8.204;2023-04-28T05:42:43;101421.38;;;11.54;95.47
49216;BME280;45943;53.148;8.204;2023-04-28T05:45:09;101415.75;;;11.57;95.90
49216;BME280;45943;53.148;8.204;2023-04-28T05:47:35;101421.16;;;11.68;94.14
49216;BME280;45943;53.148;8.204;2023-04-28T05:50:01;101418.97;;;11.62;93.43
49216;BME280;45943;53.148;8.204;2023-04-28T05:52:27;101421.38;;;11.54;92.05
49216;BME280;45943;53.148;8.204;2023-04-28T05:54:53;101426.97;;;11.51;94.72
49216;BME280;45943;53.148;8.204;2023-04-28T05:57:19;101421.31;;;11.43;95.43
49216;BME280;45943;53.148;8.204;2023-04-28T05:59:46;101420.28;;;11.57;96.63
49216;BME280;45943;53.148;8.204;2023-04-28T06:02:12;101412.78;;;11.73;93.87
49216;BME280;45943;53.148;8.204;2023-04-28T06:04:38;101415.34;;;11.74;92.17
49216;BME280;45943;53.148;8.204;2023-04-28T06:07:04;101408.00;;;11.76;92.18
49216;BME280;45943;53.148;8.204;2023-04-28T06:09:30;101392.31;;;11.83;92.31
49216;BME280;45943;53.148;8.204;2023-04-28T06:11:56;101394.63;;;11.88;93.58
49216;BME280;45943;53.148;8.204;2023-04-28T06:14:22;101382.03;;;11.88;92.24
49216;BME280;45943;53.148;8.204;2023-04-28T06:16:49;101389.25;;;11.88;90.64
49216;BME280;45943;53.148;8.204;2023-04-28T06:19:15;101391.72;;;11.91;90.02
49216;BME280;45943;53.148;8.204;2023-04-28T06:21:43;101379.34;;;11.88;88.88
49216;BME280;45943;53.148;8.204;2023-04-28T06:24:10;101388.72;;;11.71;90.47
49216;BME280;45943;53.148;8.204;2023-04-28T06:26:36;101383.75;;;11.89;91.68
49216;BME280;45943;53.148;8.204;2023-04-28T06:29:03;101378.69;;;11.73;91.34
49216;BME280;45943;53.148;8.204;2023-04-28T06:31:29;101373.88;;;11.90;90.60
49216;BME280;45943;53.148;8.204;2023-04-28T06:33:55;101373.75;;;11.91;89.64
49216;BME280;45943;53.148;8.204;2023-04-28T06:36:21;101371.81;;;11.93;89.47
49216;BME280;45943;53.148;8.204;2023-04-28T06:38:47;101380.59;;;11.84;90.25
49216;BME280;45943;53.148;8.204;2023-04-28T06:41:13;101372.53;;;11.84;92.96
49216;BME280;45943;53.148;8.204;2023-04-28T06:43:39;101373.41;;;12.07;92.50
49216;BME280;45943;53.148;8.204;2023-04-28T06:46:05;101374.53;;;12.16;90.48
49216;BME280;45943;53.148;8.204;2023-04-28T06:48:31;101379.50;;;12.09;91.41
49216;BME280;45943;53.148;8.204;2023-04-28T06:50:57;101383.19;;;12.08;91.46
49216;BME280;45943;53.148;8.204;2023-04-28T06:53:23;101377.84;;;12.19;91.54
49216;BME280;45943;53.148;8.204;2023-04-28T06:55:49;101375.88;;;12.21;91.02
49216;BME280;45943;53.148;8.204;2023-04-28T06:58:16;101379.06;;;12.26;91.48
49216;BME280;45943;53.148;8.204;2023-04-28T07:00:42;101370.63;;;12.31;91.78
49216;BME280;45943;53.148;8.204;2023-04-28T07:03:08;101360.31;;;12.58;92.51
49216;BME280;45943;53.148;8.204;2023-04-28T07:05:34;101364.97;;;12.68;91.67
49216;BME280;45943;53.148;8.204;2023-04-28T07:08:00;101360.19;;;12.82;89.24
49216;BME280;45943;53.148;8.204;2023-04-28T07:10:26;101362.63;;;12.85;86.79
49216;BME280;45943;53.148;8.204;2023-04-28T07:12:52;101357.75;;;12.79;83.40
49216;BME280;45943;53.148;8.204;2023-04-28T07:15:18;101357.50;;;12.82;80.92
49216;BME280;45943;53.148;8.204;2023-04-28T07:17:44;101356.78;;;12.80;81.16
49216;BME280;45943;53.148;8.204;2023-04-28T07:20:10;101353.09;;;12.81;80.78
49216;BME280;45943;53.148;8.204;2023-04-28T07:22:37;101347.41;;;12.96;79.25
49216;BME280;45943;53.148;8.204;2023-04-28T07:25:03;101348.25;;;13.07;77.90
49216;BME280;45943;53.148;8.204;2023-04-28T07:27:30;101349.97;;;12.97;77.69
49216;BME280;45943;53.148;8.204;2023-04-28T07:29:56;101354.28;;;13.00;78.09
49216;BME280;45943;53.148;8.204;2023-04-28T07:32:22;101347.09;;;12.89;78.13
49216;BME280;45943;53.148;8.204;2023-04-28T07:34:48;101338.38;;;12.85;78.56
49216;BME280;45943;53.148;8.204;2023-04-28T07:37:15;101351.09;;;12.95;78.94
49216;BME280;45943;53.148;8.204;2023-04-28T07:39:41;101339.31;;;13.07;77.86
49216;BME280;45943;53.148;8.204;2023-04-28T07:42:08;101347.38;;;13.29;77.67
49216;BME280;45943;53.148;8.204;2023-04-28T07:44:34;101344.81;;;13.28;77.15
49216;BME280;45943;53.148;8.204;2023-04-28T07:47:00;101355.03;;;13.34;76.67
49216;BME280;45943;53.148;8.204;2023-04-28T07:49:27;101345.19;;;13.44;75.07
49216;BME280;45943;53.148;8.204;2023-04-28T07:51:53;101344.34;;;13.64;75.60
49216;BME280;45943;53.148;8.204;2023-04-28T07:54:21;101336.47;;;13.72;76.11
49216;BME280;45943;53.148;8.204;2023-04-28T07:56:47;101334.06;;;13.69;74.24
49216;BME280;45943;53.148;8.204;2023-04-28T07:59:13;101332.59;;;13.65;76.02
49216;BME280;45943;53.148;8.204;2023-04-28T08:01:39;101334.97;;;13.80;75.00
49216;BME280;45943;53.148;8.204;2023-04-28T08:04:05;101331.06;;;13.72;72.92
49216;BME280;45943;53.148;8.204;2023-04-28T08:06:31;101324.75;;;13.83;70.54
49216;BME280;45943;53.148;8.204;2023-04-28T08:08:59;101320.81;;;13.87;69.40
49216;BME280;45943;53.148;8.204;2023-04-28T08:11:26;101319.34;;;14.04;66.39
49216;BME280;45943;53.148;8.204;2023-04-28T08:13:53;101314.53;;;14.07;64.98
49216;BME280;45943;53.148;8.204;2023-04-28T08:16:19;101318.72;;;13.91;65.26
49216;BME280;45943;53.148;8.204;2023-04-28T08:18:45;101313.50;;;13.99;64.31
49216;BME280;45943;53.148;8.204;2023-04-28T08:21:11;101322.06;;;14.14;63.10
49216;BME280;45943;53.148;8.204;2023-04-28T08:23:37;101317.44;;;14.25;63.27
49216;BME280;45943;53.148;8.204;2023-04-28T08:26:03;101322.06;;;14.44;62.76
49216;BME280;45943;53.148;8.204;2023-04-28T08:28:29;101327.03;;;14.39;62.20
49216;BME280;45943;53.148;8.204;2023-04-28T08:30:55;101320.34;;;14.43;61.98
49216;BME280;45943;53.148;8.204;2023-04-28T08:33:21;101320.75;;;14.69;63.01
49216;BME280;45943;53.148;8.204;2023-04-28T08:35:49;101321.03;;;14.56;61.10
49216;BME280;45943;53.148;8.204;2023-04-28T08:38:15;101329.69;;;14.60;62.19
49216;BME280;45943;53.148;8.204;2023-04-28T08:40:42;101319.88;;;14.59;61.13
49216;BME280;45943;53.148;8.204;2023-04-28T08:43:08;101317.53;;;14.75;61.54
49216;BME280;45943;53.148;8.204;2023-04-28T08:45:39;101311.41;;;14.92;61.05
49216;BME280;45943;53.148;8.204;2023-04-28T08:48:16;101314.09;;;14.83;59.70
49216;BME280;45943;53.148;8.204;2023-04-28T08:50:48;101312.81;;;14.77;60.93
49216;BME280;45943;53.148;8.204;2023-04-28T08:53:23;101311.16;;;14.96;60.77
49216;BME280;45943;53.148;8.204;2023-04-28T08:55:51;101307.16;;;15.09;60.40
49216;BME280;45943;53.148;8.204;2023-04-28T08:58:22;101308.56;;;15.04;60.15
49216;BME280;45943;53.148;8.204;2023-04-28T09:00:49;101307.84;;;14.82;60.02
49216;BME280;45943;53.148;8.204;2023-04-28T09:03:16;101306.88;;;15.12;59.84
49216;BME280;45943;53.148;8.204;2023-04-28T09:05:42;101308.31;;;15.26;59.77
49216;BME280;45943;53.148;8.204;2023-04-28T09:08:08;101307.88;;;15.11;60.17
49216;BME280;45943;53.148;8.204;2023-04-28T09:10:36;101307.88;;;15.11;59.88
49216;BME280;45943;53.148;8.204;2023-04-28T09:13:03;101306.03;;;15.21;60.05
49216;BME280;45943;53.148;8.204;2023-04-28T09:15:30;101303.91;;;15.25;59.93
49216;BME280;45943;53.148;8.204;2023-04-28T09:18:01;101302.06;;;15.16;59.82
49216;BME280;45943;53.148;8.204;2023-04-28T09:20:31;101299.50;;;15.14;60.36
49216;BME280;45943;53.148;8.204;2023-04-28T09:25:59;101289.56;;;15.34;60.54
49216;BME280;45943;53.148;8.204;2023-04-28T09:28:30;101281.84;;;15.39;59.45
49216;BME280;45943;53.148;8.204;2023-04-28T09:30:57;101284.69;;;15.47;59.97
49216;BME280;45943;53.148;8.204;2023-04-28T09:33:24;101279.56;;;15.73;60.01
49216;BME280;45943;53.148;8.204;2023-04-28T09:35:50;101281.59;;;15.99;59.30
49216;BME280;45943;53.148;8.204;2023-04-28T09:38:16;101277.53;;;15.85;59.32
49216;BME280;45943;53.148;8.204;2023-04-28T09:43:22;101281.19;;;15.94;59.10
49216;BME280;45943;53.148;8.204;2023-04-28T09:45:49;101265.34;;;15.99;59.10
49216;BME280;45943;53.148;8.204;2023-04-28T09:48:15;101267.53;;;15.95;59.82
49216;BME280;45943;53.148;8.204;2023-04-28T09:50:41;101267.75;;;16.02;58.72
49216;BME280;45943;53.148;8.204;2023-04-28T09:53:07;101269.50;;;16.03;58.63
49216;BME280;45943;53.148;8.204;2023-04-28T09:55:38;101268.53;;;15.94;58.78
49216;BME280;45943;53.148;8.204;2023-04-28T09:58:08;101255.34;;;16.09;59.59
49216;BME280;45943;53.148;8.204;2023-04-28T10:00:38;101258.75;;;16.11;59.89
49216;BME280;45943;53.148;8.204;2023-04-28T10:03:06;101252.25;;;16.04;59.95
49216;BME280;45943;53.148;8.204;2023-04-28T10:05:33;101242.88;;;15.98;60.75
49216;BME280;45943;53.148;8.204;2023-04-28T10:08:01;101246.63;;;16.15;61.20
49216;BME280;45943;53.148;8.204;2023-04-28T10:10:28;101253.91;;;16.15;61.07
49216;BME280;45943;53.148;8.204;2023-04-28T10:12:54;101248.72;;;16.21;61.59
49216;BME280;45943;53.148;8.204;2023-04-28T10:15:22;101247.56;;;16.33;61.51
49216;BME280;45943;53.148;8.204;2023-04-28T10:17:48;101241.78;;;16.19;62.50
49216;BME280;45943;53.148;8.204;2023-04-28T10:20:16;101236.94;;;16.22;62.54
49216;BME280;45943;53.148;8.204;2023-04-28T10:22:48;101241.97;;;16.35;62.08
49216;BME280;45943;53.148;8.204;2023-04-28T10:25:28;101235.78;;;16.25;63.06
49216;BME280;45943;53.148;8.204;2023-04-28T10:27:57;101239.75;;;16.21;64.72
49216;BME280;45943;53.148;8.204;2023-04-28T10:30:25;101240.66;;;16.12;65.94
49216;BME280;45943;53.148;8.204;2023-04-28T10:38:15;101221.09;;;15.90;67.05
49216;BME280;45943;53.148;8.204;2023-04-28T10:40:46;101218.78;;;16.05;67.59
49216;BME280;45943;53.148;8.204;2023-04-28T10:48:19;101210.88;;;16.12;69.27
49216;BME280;45943;53.148;8.204;2023-04-28T10:58:44;101212.75;;;15.84;72.00
49216;BME280;45943;53.148;8.204;2023-04-28T11:01:25;101211.75;;;15.85;72.04
49216;BME280;45943;53.148;8.204;2023-04-28T11:06:29;101200.94;;;15.85;74.14
49216;BME280;45943;53.148;8.204;2023-04-28T11:11:39;101192.78;;;15.94;74.24
49216;BME280;45943;53.148;8.204;2023-04-28T11:16:55;101186.81;;;16.36;74.25
49216;BME280;45943;53.148;8.204;2023-04-28T11:19:27;101193.09;;;16.09;72.71
49216;BME280;45943;53.148;8.204;2023-04-28T11:21:54;101181.13;;;16.12;72.39
49216;BME280;45943;53.148;8.204;2023-04-28T11:24:22;101177.56;;;16.11;73.61
49216;BME280;45943;53.148;8.204;2023-04-28T11:26:52;101173.84;;;16.12;73.19
49216;BME280;45943;53.148;8.204;2023-04-28T11:29:21;101173.34;;;16.26;73.82
49216;BME280;45943;53.148;8.204;2023-04-28T11:31:59;101168.09;;;16.25;73.88
49216;BME280;45943;53.148;8.204;2023-04-28T11:34:26;101169.25;;;16.40;73.72
49216;BME280;45943;53.148;8.204;2023-04-28T11:36:52;101158.69;;;16.47;72.33
49216;BME280;45943;53.148;8.204;2023-04-28T11:39:24;101162.22;;;16.47;74.04
49216;BME280;45943;53.148;8.204;2023-04-28T11:41:55;101159.34;;;16.31;74.30
49216;BME280;45943;53.148;8.204;2023-04-28T11:44:23;101147.38;;;16.51;74.18
49216;BME280;45943;53.148;8.204;2023-04-28T11:46:52;101158.34;;;16.50;74.41
49216;BME280;45943;53.148;8.204;2023-04-28T11:49:22;101156.22;;;16.71;72.13
49216;BME280;45943;53.148;8.204;2023-04-28T11:52:04;101161.63;;;16.71;72.24
49216;BME280;45943;53.148;8.204;2023-04-28T11:54:31;101156.22;;;16.71;72.66
49216;BME280;45943;53.148;8.204;2023-04-28T11:56:58;101152.47;;;16.90;70.86
49216;BME280;45943;53.148;8.204;2023-04-28T11:59:28;101153.09;;;17.02;69.41
49216;BME280;45943;53.148;8.204;2023-04-28T12:02:03;101150.75;;;17.07;69.48
49216;BME280;45943;53.148;8.204;2023-04-28T12:09:42;101146.19;;;17.07;71.76
49216;BME280;45943;53.148;8.204;2023-04-28T12:12:11;101152.81;;;16.87;70.82
49216;BME280;45943;53.148;8.204;2023-04-28T12:14:56;101149.84;;;16.98;71.10
49216;BME280;45943;53.148;8.204;2023-04-28T12:17:28;101145.84;;;17.02;72.72
49216;BME280;45943;53.148;8.204;2023-04-28T12:19:56;101144.31;;;17.08;72.01
49216;BME280;45943;53.148;8.204;2023-04-28T12:22:24;101139.38;;;17.29;70.91
49216;BME280;45943;53.148;8.204;2023-04-28T12:25:03;101141.56;;;17.00;70.85
49216;BME280;45943;53.148;8.204;2023-04-28T12:27:33;101128.28;;;17.14;71.89
49216;BME280;45943;53.148;8.204;2023-04-28T12:30:01;101133.75;;;16.97;72.21
49216;BME280;45943;53.148;8.204;2023-04-28T12:32:40;101128.09;;;16.90;74.13
49216;BME280;45943;53.148;8.204;2023-04-28T12:35:08;101121.00;;;17.15;73.42
49216;BME280;45943;53.148;8.204;2023-04-28T12:37:34;101121.00;;;17.15;72.89
49216;BME280;45943;53.148;8.204;2023-04-28T12:40:00;101125.31;;;17.26;73.90
49216;BME280;45943;53.148;8.204;2023-04-28T12:42:27;101119.16;;;17.15;74.76
49216;BME280;45943;53.148;8.204;2023-04-28T12:44:53;101122.59;;;17.52;73.09
49216;BME280;45943;53.148;8.204;2023-04-28T12:47:19;101127.78;;;17.45;73.82
49216;BME280;45943;53.148;8.204;2023-04-28T12:49:45;101111.06;;;17.58;71.90
49216;BME280;45943;53.148;8.204;2023-04-28T12:52:13;101115.69;;;17.65;72.93
49216;BME280;45943;53.148;8.204;2023-04-28T12:54:39;101107.00;;;17.54;72.14
49216;BME280;45943;53.148;8.204;2023-04-28T12:57:11;101110.44;;;17.64;73.74
49216;BME280;45943;53.148;8.204;2023-04-28T12:59:38;101111.91;;;17.58;73.79
49216;BME280;45943;53.148;8.204;2023-04-28T13:02:04;101109.66;;;17.80;72.77
49216;BME280;45943;53.148;8.204;2023-04-28T13:04:30;101100.53;;;17.81;73.04
49216;BME280;45943;53.148;8.204;2023-04-28T13:06:56;101099.69;;;17.88;72.78
49216;BME280;45943;53.148;8.204;2023-04-28T13:09:23;101096.09;;;17.80;74.92
49216;BME280;45943;53.148;8.204;2023-04-28T13:11:56;101092.06;;;17.84;73.38
49216;BME280;45943;53.148;8.204;2023-04-28T13:14:23;101095.25;;;17.79;74.45
49216;BME280;45943;53.148;8.204;2023-04-28T13:16:51;101098.16;;;17.86;74.39
49216;BME280;45943;53.148;8.204;2023-04-28T13:19:17;101096.94;;;17.72;75.24
49216;BME280;45943;53.148;8.204;2023-04-28T13:21:43;101104.63;;;17.59;78.09